createdAt,value
2018-10-16T00:04:19.289Z,95643.00
2018-10-16T00:09:48.541Z,95649.00
2018-10-16T00:15:17.816Z,95643.00
2018-10-16T00:20:47.042Z,95646.00
2018-10-16T00:26:16.403Z,95650.00
2018-10-16T00:31:45.749Z,95648.00
2018-10-16T00:37:16.021Z,95651.00
2018-10-16T00:42:45.270Z,95653.00
2018-10-16T00:48:14.545Z,95655.00
2018-10-16T00:53:43.794Z,95658.00
2018-10-16T00:59:13.073Z,95660.00
2018-10-16T01:04:42.288Z,95661.00
2018-10-16T01:10:12.532Z,95660.00
2018-10-16T01:15:41.777Z,95659.00
2018-10-16T01:21:10.988Z,95665.00
2018-10-16T01:26:40.324Z,95671.00
2018-10-16T01:32:09.613Z,95666.00
2018-10-16T01:37:38.925Z,95671.00
2018-10-16T01:43:08.145Z,95664.00
2018-10-16T01:48:37.940Z,95658.00
2018-10-16T01:54:07.414Z,95654.00
2018-10-16T01:59:36.752Z,95657.00
2018-10-16T02:05:07.167Z,95657.00
2018-10-16T02:10:36.516Z,95666.00
2018-10-16T02:16:05.872Z,95669.00
2018-10-16T02:21:35.064Z,95670.00
2018-10-16T02:27:04.356Z,95678.00
2018-10-16T02:32:33.612Z,95678.00
2018-10-16T02:38:02.808Z,95682.00
2018-10-16T02:43:31.989Z,95673.00
2018-10-16T02:49:01.329Z,95678.00
2018-10-16T02:54:30.647Z,95687.00
2018-10-16T03:00:01.565Z,95687.00
2018-10-16T03:05:31.568Z,95698.00
2018-10-16T03:11:01.032Z,95701.00
2018-10-16T03:16:30.256Z,95698.00
2018-10-16T03:21:59.494Z,95698.00
2018-10-16T03:27:28.684Z,95704.00
2018-10-16T03:32:57.992Z,95717.00
2018-10-16T03:38:27.260Z,95723.00
2018-10-16T03:44:01.160Z,95734.00
2018-10-16T03:49:30.411Z,95732.00
2018-10-16T03:54:59.750Z,95728.00
2018-10-16T04:00:28.935Z,95736.00
2018-10-16T04:05:58.230Z,95735.00
2018-10-16T04:11:27.488Z,95744.00
2018-10-16T04:16:56.861Z,95748.00
2018-10-16T04:22:26.680Z,95749.00
2018-10-16T04:27:55.952Z,95755.00
2018-10-16T04:33:25.420Z,95765.00
2018-10-16T04:38:55.763Z,95761.00
2018-10-16T04:44:25.164Z,95760.00
2018-10-16T04:49:54.717Z,95769.00
2018-10-16T04:55:24.325Z,95773.00
2018-10-16T05:00:53.668Z,95773.00
2018-10-16T05:06:23.912Z,95787.00
2018-10-16T05:11:54.422Z,95780.00
2018-10-16T05:17:24.215Z,95790.00
2018-10-16T05:22:53.876Z,95790.00
2018-10-16T05:28:23.136Z,95797.00
2018-10-16T05:33:52.348Z,95798.00
2018-10-16T05:39:21.643Z,95802.00
2018-10-16T05:44:50.824Z,95810.00
2018-10-16T05:50:20.067Z,95817.00
2018-10-16T05:56:01.964Z,95821.00
2018-10-16T06:01:31.201Z,95835.00
2018-10-16T06:07:00.517Z,95841.00
2018-10-16T06:12:29.785Z,95848.00
2018-10-16T06:17:59.047Z,95843.00
2018-10-16T06:23:28.416Z,95844.00
2018-10-16T06:28:57.753Z,95844.00
2018-10-16T06:34:27.016Z,95846.00
2018-10-16T06:39:56.267Z,95847.00
2018-10-16T06:45:25.503Z,95856.00
2018-10-16T06:50:54.842Z,95866.00
2018-10-16T06:56:24.252Z,95870.00
2018-10-16T07:01:53.573Z,95867.00
2018-10-16T07:07:22.911Z,95865.00
2018-10-16T07:12:52.236Z,95866.00
2018-10-16T07:18:21.585Z,95876.00
2018-10-16T07:23:50.959Z,95880.00
2018-10-16T07:29:20.221Z,95879.00
2018-10-16T07:34:49.490Z,95875.00
2018-10-16T07:40:18.781Z,95871.00
2018-10-16T07:45:48.050Z,95866.00
2018-10-16T07:51:17.330Z,95876.00
2018-10-16T07:56:46.628Z,95876.00
2018-10-16T08:02:15.845Z,95871.00
2018-10-16T08:07:45.164Z,95880.00
2018-10-16T08:13:14.411Z,95878.00
2018-10-16T08:18:43.668Z,95877.00
2018-10-16T08:24:13.055Z,95878.00
2018-10-16T08:29:43.465Z,95880.00
2018-10-16T08:35:12.737Z,95885.00
2018-10-16T08:40:42.067Z,95889.00
2018-10-16T08:46:28.637Z,95887.00
2018-10-16T08:51:59.416Z,95884.00
2018-10-16T08:57:28.652Z,95891.00
2018-10-16T09:02:57.906Z,95893.00
2018-10-16T09:08:28.318Z,95896.00
2018-10-16T09:13:57.582Z,95895.00
2018-10-16T09:19:26.810Z,95897.00
2018-10-16T09:24:56.106Z,95912.00
2018-10-16T09:30:25.509Z,95912.00
2018-10-16T09:35:54.748Z,95916.00
2018-10-16T09:41:24.053Z,95919.00
2018-10-16T09:46:53.332Z,95916.00
2018-10-16T09:52:22.596Z,95914.00
2018-10-16T09:57:51.879Z,95918.00
2018-10-16T10:03:21.143Z,95915.00
2018-10-16T10:08:50.356Z,95916.00
2018-10-16T10:14:19.600Z,95913.00
2018-10-16T10:19:48.990Z,95916.00
2018-10-16T10:25:18.312Z,95909.00
2018-10-16T10:30:47.557Z,95915.00
2018-10-16T10:36:16.792Z,95910.00
2018-10-16T10:41:46.053Z,95912.00
2018-10-16T10:47:15.324Z,95902.00
2018-10-16T10:52:44.584Z,95905.00
2018-10-16T10:58:13.881Z,95903.00
2018-10-16T11:03:43.158Z,95895.00
2018-10-16T11:09:13.305Z,95898.00
2018-10-16T11:14:42.571Z,95888.00
2018-10-16T11:20:13.152Z,95889.00
2018-10-16T11:25:42.385Z,95882.00
2018-10-16T11:31:11.677Z,95888.00
2018-10-16T11:36:40.940Z,95888.00
2018-10-16T11:42:10.272Z,95878.00
2018-10-16T11:47:39.535Z,95884.00
2018-10-16T11:53:08.816Z,95883.00
2018-10-16T11:58:38.110Z,95882.00
2018-10-16T12:04:07.423Z,95883.00
2018-10-16T12:09:36.664Z,95891.00
2018-10-16T12:15:06.497Z,95886.00
2018-10-16T12:20:39.943Z,95889.00
2018-10-16T12:26:09.313Z,95883.00
2018-10-16T12:31:38.550Z,95882.00
2018-10-16T12:37:07.875Z,95871.00
2018-10-16T12:42:37.098Z,95880.00
2018-10-16T12:48:06.585Z,95873.00
2018-10-16T12:53:35.790Z,95872.00
2018-10-16T12:59:05.131Z,95863.00
2018-10-16T13:04:34.440Z,95856.00
2018-10-16T13:10:04.518Z,95864.00
2018-10-16T13:15:34.800Z,95866.00
2018-10-16T13:21:04.126Z,95858.00
2018-10-16T13:26:33.341Z,95863.00
2018-10-16T13:32:02.683Z,95861.00
2018-10-16T13:37:32.016Z,95870.00
2018-10-16T13:43:01.400Z,95864.00
2018-10-16T13:48:30.608Z,95856.00
2018-10-16T13:54:01.090Z,95858.00
2018-10-16T13:59:30.670Z,95844.00
2018-10-16T14:05:00.170Z,95833.00
2018-10-16T14:10:29.337Z,95793.00
2018-10-16T14:15:58.732Z,95811.00
2018-10-16T14:21:28.144Z,95819.00
2018-10-16T14:26:57.412Z,95829.00
2018-10-16T14:32:26.652Z,95844.00
2018-10-16T14:37:55.923Z,95852.00
2018-10-16T14:43:25.267Z,95864.00
2018-10-16T14:48:54.537Z,95847.00
2018-10-16T14:54:23.846Z,95832.00
2018-10-16T14:59:53.138Z,95845.00
2018-10-16T15:05:22.521Z,95855.00
2018-10-16T15:10:51.793Z,95862.00
2018-10-16T15:16:21.090Z,95861.00
2018-10-16T15:21:50.480Z,95859.00
2018-10-16T15:27:19.884Z,95855.00
2018-10-16T15:32:49.148Z,95866.00
2018-10-16T15:38:18.407Z,95871.00
2018-10-16T15:43:47.793Z,95872.00
2018-10-16T15:49:17.731Z,95878.00
2018-10-16T15:54:47.118Z,95880.00
2018-10-16T16:00:17.528Z,95880.00
2018-10-16T16:05:46.874Z,95874.00
2018-10-16T16:11:16.497Z,95887.00
2018-10-16T16:16:46.126Z,95890.00
2018-10-16T16:22:15.757Z,95892.00
2018-10-16T16:27:45.079Z,95896.00
2018-10-16T16:33:14.533Z,95897.00
2018-10-16T16:38:44.082Z,95902.00
2018-10-16T16:44:13.592Z,95897.00
2018-10-16T16:49:43.037Z,95911.00
2018-10-16T16:55:14.801Z,95909.00
2018-10-16T17:00:44.140Z,95907.00
2018-10-16T17:06:13.839Z,95915.00
2018-10-16T17:11:43.330Z,95910.00
2018-10-16T17:17:12.737Z,95920.00
2018-10-16T17:22:42.149Z,95929.00
2018-10-16T17:28:11.488Z,95937.00
2018-10-16T17:33:40.701Z,95933.00
2018-10-16T17:39:10.959Z,95930.00
2018-10-16T17:44:40.261Z,95948.00
2018-10-16T17:50:12.735Z,95948.00
2018-10-16T17:55:42.186Z,95942.00
2018-10-16T18:01:11.848Z,95930.00
2018-10-16T18:06:41.254Z,95942.00
2018-10-16T18:12:10.749Z,95937.00
2018-10-16T18:17:40.912Z,95943.00
2018-10-16T18:23:10.333Z,95944.00
2018-10-16T18:28:39.729Z,95948.00
2018-10-16T18:34:09.289Z,95949.00
2018-10-16T18:39:38.627Z,95946.00
2018-10-16T18:45:09.220Z,95950.00
2018-10-16T18:50:38.784Z,95945.00
2018-10-16T18:56:08.198Z,95954.00
2018-10-16T19:01:37.466Z,95951.00
2018-10-16T19:07:08.000Z,95947.00
2018-10-16T19:12:41.169Z,95951.00
2018-10-16T19:18:10.860Z,95951.00
2018-10-16T19:23:40.213Z,95952.00
2018-10-16T19:29:09.501Z,95951.00
2018-10-16T19:34:38.799Z,95953.00
2018-10-16T19:40:08.260Z,95955.00
2018-10-16T19:45:37.541Z,95955.00
2018-10-16T19:51:07.124Z,95963.00
2018-10-16T19:56:36.574Z,95956.00
2018-10-16T20:02:07.048Z,95972.00
2018-10-16T20:07:36.482Z,95950.00
2018-10-16T20:13:05.932Z,95946.00
2018-10-16T20:18:35.348Z,95950.00
2018-10-16T20:24:05.059Z,95948.00
2018-10-16T20:29:34.296Z,95953.00
2018-10-16T20:35:03.886Z,95957.00
2018-10-16T20:40:33.228Z,95951.00
2018-10-16T20:46:02.512Z,95958.00
2018-10-16T20:51:31.793Z,95945.00
2018-10-16T20:57:01.125Z,95946.00
2018-10-16T21:02:30.578Z,95940.00
2018-10-16T21:07:59.858Z,95935.00
2018-10-16T21:13:29.202Z,95934.00
2018-10-16T21:18:58.526Z,95934.00
2018-10-16T21:24:27.820Z,95936.00
2018-10-16T21:29:57.464Z,95935.00
2018-10-16T21:35:26.690Z,95929.00
2018-10-16T21:40:56.030Z,95924.00
2018-10-16T21:46:25.278Z,95932.00
2018-10-16T21:51:54.549Z,95927.00
2018-10-16T21:57:23.876Z,95921.00
2018-10-16T22:02:53.213Z,95923.00
2018-10-16T22:08:22.533Z,95924.00
2018-10-16T22:13:51.849Z,95926.00
2018-10-16T22:19:21.149Z,95923.00
2018-10-16T22:24:50.539Z,95913.00
2018-10-16T22:30:19.803Z,95917.00
2018-10-16T22:35:49.021Z,95918.00
2018-10-16T22:41:18.366Z,95916.00
2018-10-16T22:46:47.755Z,95918.00
2018-10-16T22:52:16.996Z,95918.00
2018-10-16T22:57:46.229Z,95921.00
2018-10-16T23:03:15.596Z,95914.00
2018-10-16T23:08:44.873Z,95914.00
2018-10-16T23:14:14.227Z,95917.00
2018-10-16T23:19:43.489Z,95920.00
2018-10-16T23:25:12.818Z,95923.00
2018-10-16T23:30:42.041Z,95922.00
2018-10-16T23:36:11.384Z,95922.00
2018-10-16T23:41:41.485Z,95918.00
2018-10-16T23:47:10.807Z,95915.00
2018-10-16T23:52:39.992Z,95927.00
2018-10-16T23:58:09.231Z,95922.00
